Time;durP1;ratioP1;P1;durP2;ratioP2;P2;SDS_P1;SDS_P2;PMS_P1;PMS_P2;Temp;Humidity;BMP_temperature;BMP_pressure;BME280_temperature;BME280_humidity;BME280_pressure;Samples;Min_cycle;Max_cycle;Signal;HPM_P1;HPM_P2
2022/09/21 00:00:44;;;;;;;6.68;3.60;;;;;;;;;;5025867;28;20090;-61
2022/09/21 00:03:09;;;;;;;7.32;3.65;;;;;;;;;;5029411;28;20021;-61
2022/09/21 00:05:35;;;;;;;7.20;3.40;;;;;;;;;;5029027;28;20036;-61
2022/09/21 00:08:02;;;;;;;6.82;3.63;;;;;;;;;;5030108;28;20099;-61
2022/09/21 00:10:28;;;;;;;11.80;4.10;;;;;;;;;;5026305;28;20033;-62
2022/09/21 00:12:55;;;;;;;4.72;2.90;;;;;;;;;;5029876;28;20057;-61
2022/09/21 00:15:21;;;;;;;6.25;3.55;;;;;;;;;;5030465;28;20026;-61
2022/09/21 00:17:46;;;;;;;6.90;3.65;;;;;;;;;;5027662;28;20048;-62
2022/09/21 00:20:13;;;;;;;6.15;3.22;;;;;;;;;;5028547;28;20034;-62
2022/09/21 00:22:40;;;;;;;7.60;3.75;;;;;;;;;;5028407;28;20037;-62
2022/09/21 00:25:07;;;;;;;6.93;3.15;;;;;;;;;;5029979;28;20037;-61
2022/09/21 00:27:32;;;;;;;6.03;3.55;;;;;;;;;;5029190;28;20029;-61
2022/09/21 00:30:01;;;;;;;5.80;3.72;;;;;;;;;;5030431;28;20064;-61
2022/09/21 00:32:30;;;;;;;7.90;3.42;;;;;;;;;;5044274;28;20136;-61
2022/09/21 00:34:56;;;;;;;7.22;3.30;;;;;;;;;;5028059;28;20072;-61
2022/09/21 00:37:21;;;;;;;7.32;3.67;;;;;;;;;;5032089;28;20037;-61
2022/09/21 00:39:46;;;;;;;6.55;3.50;;;;;;;;;;5028694;28;20030;-61
2022/09/21 00:42:27;;;;;;;6.10;3.50;;;;;;;;;;5029145;28;20046;-62
2022/09/21 00:44:53;;;;;;;6.30;3.45;;;;;;;;;;5029267;28;20026;-61
2022/09/21 00:47:24;;;;;;;7.03;3.53;;;;;;;;;;5029416;28;20037;-61
2022/09/21 00:49:53;;;;;;;6.32;3.40;;;;;;;;;;5029291;28;20038;-61
2022/09/21 00:52:23;;;;;;;6.25;3.35;;;;;;;;;;5029837;28;20053;-61
2022/09/21 00:54:51;;;;;;;5.57;3.50;;;;;;;;;;5043401;28;20773;-61
2022/09/21 00:57:20;;;;;;;5.80;3.22;;;;;;;;;;5037528;28;20546;-61
2022/09/21 00:59:47;;;;;;;7.22;2.90;;;;;;;;;;5027302;28;20505;-61
2022/09/21 01:02:14;;;;;;;6.15;3.05;;;;;;;;;;5032819;28;20033;-61
2022/09/21 01:04:39;;;;;;;6.90;3.20;;;;;;;;;;5029432;28;20057;-61
2022/09/21 01:07:11;;;;;;;8.23;3.28;;;;;;;;;;5029057;28;20128;-61
2022/09/21 01:09:37;;;;;;;6.18;3.00;;;;;;;;;;5028780;28;20477;-61
2022/09/21 01:12:14;;;;;;;7.65;3.65;;;;;;;;;;5029390;28;20021;-61
2022/09/21 01:14:48;;;;;;;5.60;3.13;;;;;;;;;;5043841;28;20033;-61
2022/09/21 01:17:42;;;;;;;7.40;3.83;;;;;;;;;;5028508;28;20049;-61
2022/09/21 01:20:26;;;;;;;8.32;3.40;;;;;;;;;;5029163;28;20033;-61
2022/09/21 01:23:06;;;;;;;;;;;;;;;;;;5027852;28;20038;-61
2022/09/21 01:25:53;;;;;;;6.18;2.88;;;;;;;;;;5027681;28;19967;-62
2022/09/21 01:28:33;;;;;;;4.15;2.90;;;;;;;;;;5027141;28;20041;-61
2022/09/21 01:31:04;;;;;;;5.13;2.78;;;;;;;;;;5028555;28;20049;-61
2022/09/21 01:33:38;;;;;;;6.75;3.03;;;;;;;;;;5026847;28;20780;-61
2022/09/21 01:36:12;;;;;;;3.83;2.67;;;;;;;;;;5029237;28;20124;-61
2022/09/21 01:38:50;;;;;;;6.13;2.80;;;;;;;;;;5027410;28;20418;-61
2022/09/21 01:41:18;;;;;;;5.13;3.00;;;;;;;;;;5050507;28;20048;-62
2022/09/21 01:43:49;;;;;;;51.28;4.40;;;;;;;;;;5057204;28;20033;-61
2022/09/21 01:46:18;;;;;;;7.57;3.33;;;;;;;;;;5036679;28;20021;-61
2022/09/21 01:48:48;;;;;;;46.13;3.80;;;;;;;;;;5028183;28;20423;-61
2022/09/21 01:51:17;;;;;;;6.13;3.28;;;;;;;;;;5030090;28;20060;-61
2022/09/21 01:53:48;;;;;;;6.47;3.20;;;;;;;;;;5047648;28;20045;-62
2022/09/21 01:56:20;;;;;;;8.13;3.45;;;;;;;;;;5038131;28;20903;-61
2022/09/21 01:59:13;;;;;;;6.63;3.58;;;;;;;;;;5048096;28;20051;-61
2022/09/21 02:01:45;;;;;;;5.10;3.28;;;;;;;;;;5047853;28;20059;-61
2022/09/21 02:04:12;;;;;;;9.82;3.53;;;;;;;;;;5046394;28;20555;-61
2022/09/21 02:06:40;;;;;;;5.32;2.85;;;;;;;;;;5047973;28;20055;-61
2022/09/21 02:09:07;;;;;;;7.28;3.53;;;;;;;;;;5046361;28;20027;-61
2022/09/21 02:11:32;;;;;;;9.75;3.55;;;;;;;;;;5050333;28;20025;-62
2022/09/21 02:13:58;;;;;;;6.43;3.25;;;;;;;;;;5047580;28;20045;-61
2022/09/21 02:16:38;;;;;;;4.88;3.10;;;;;;;;;;5045268;28;20094;-61
2022/09/21 02:19:13;;;;;;;6.72;3.17;;;;;;;;;;5047804;28;20048;-61
2022/09/21 02:22:06;;;;;;;11.27;3.33;;;;;;;;;;5046744;28;20405;-61
2022/09/21 02:25:01;;;;;;;28.70;3.45;;;;;;;;;;5033910;28;20017;-61
2022/09/21 02:27:42;;;;;;;6.55;3.55;;;;;;;;;;5045791;28;20078;-61
2022/09/21 02:30:24;;;;;;;37.38;4.13;;;;;;;;;;5047630;28;20051;-62
2022/09/21 02:33:09;;;;;;;21.47;3.20;;;;;;;;;;5027700;28;20037;-61
2022/09/21 02:35:50;;;;;;;26.05;3.15;;;;;;;;;;5026529;28;20669;-61
2022/09/21 02:38:28;;;;;;;7.03;3.50;;;;;;;;;;5024424;28;20518;-62
2022/09/21 02:41:18;;;;;;;7.18;2.97;;;;;;;;;;5027216;28;20467;-61
2022/09/21 02:43:57;;;;;;;6.38;2.90;;;;;;;;;;5024491;28;20033;-61
2022/09/21 02:46:31;;;;;;;19.90;2.75;;;;;;;;;;5026000;28;20068;-61
2022/09/21 02:49:08;;;;;;;5.88;3.28;;;;;;;;;;5026342;28;20060;-61
2022/09/21 02:51:42;;;;;;;7.35;3.10;;;;;;;;;;5027231;28;20034;-61
2022/09/21 02:54:12;;;;;;;7.10;2.60;;;;;;;;;;5027556;28;20052;-61
2022/09/21 02:56:39;;;;;;;14.25;3.80;;;;;;;;;;5026305;28;20037;-61
2022/09/21 02:59:05;;;;;;;13.90;4.03;;;;;;;;;;5026547;28;20467;-61
2022/09/21 03:01:31;;;;;;;5.57;2.90;;;;;;;;;;5027024;28;20065;-61
2022/09/21 03:03:57;;;;;;;7.00;3.60;;;;;;;;;;5026438;28;20043;-62
2022/09/21 03:06:23;;;;;;;5.63;3.33;;;;;;;;;;5025778;28;20025;-61
2022/09/21 03:08:48;;;;;;;10.27;3.50;;;;;;;;;;5026716;28;20049;-61
2022/09/21 03:11:17;;;;;;;8.32;3.30;;;;;;;;;;5027222;28;20045;-61
2022/09/21 03:13:43;;;;;;;8.38;3.90;;;;;;;;;;5025204;28;20036;-61
2022/09/21 03:16:09;;;;;;;11.63;3.97;;;;;;;;;;5026092;28;20041;-61
2022/09/21 03:18:35;;;;;;;14.15;4.68;;;;;;;;;;5026596;28;20061;-62
2022/09/21 03:21:01;;;;;;;8.55;4.22;;;;;;;;;;5027400;28;20521;-61
2022/09/21 03:23:27;;;;;;;48.00;5.47;;;;;;;;;;5026271;28;20107;-61
2022/09/21 03:25:53;;;;;;;107.20;6.80;;;;;;;;;;5025977;28;20037;-61
2022/09/21 03:28:19;;;;;;;49.63;5.70;;;;;;;;;;5026339;28;20125;-61
2022/09/21 03:30:44;;;;;;;64.03;4.43;;;;;;;;;;5025835;28;20113;-61
2022/09/21 03:33:11;;;;;;;48.90;5.05;;;;;;;;;;5025989;28;20053;-62
2022/09/21 03:35:37;;;;;;;75.97;5.38;;;;;;;;;;5026552;28;20083;-61
2022/09/21 03:38:02;;;;;;;36.78;4.57;;;;;;;;;;5030659;28;20033;-61
2022/09/21 03:40:28;;;;;;;29.52;4.28;;;;;;;;;;5029500;28;20053;-61
2022/09/21 03:42:54;;;;;;;22.40;4.22;;;;;;;;;;5029399;28;20037;-61
2022/09/21 03:45:26;;;;;;;38.67;4.53;;;;;;;;;;5031160;28;20017;-61
2022/09/21 03:47:59;;;;;;;13.68;4.00;;;;;;;;;;5028966;28;20422;-61
2022/09/21 03:50:28;;;;;;;42.75;4.57;;;;;;;;;;5047107;28;20033;-61
2022/09/21 03:52:54;;;;;;;27.80;5.00;;;;;;;;;;5043745;28;20044;-61
2022/09/21 03:55:20;;;;;;;20.20;4.25;;;;;;;;;;5028945;28;20080;-61
2022/09/21 03:57:45;;;;;;;53.55;4.65;;;;;;;;;;5029990;28;20052;-61
2022/09/21 04:00:12;;;;;;;19.67;4.88;;;;;;;;;;5030930;28;20028;-61
2022/09/21 04:02:39;;;;;;;21.70;4.43;;;;;;;;;;5028971;28;20514;-61
2022/09/21 04:05:06;;;;;;;43.70;4.32;;;;;;;;;;5027975;28;20083;-61
2022/09/21 04:07:33;;;;;;;48.67;4.53;;;;;;;;;;5030086;28;20112;-61
2022/09/21 04:10:02;;;;;;;39.33;5.43;;;;;;;;;;5029626;28;20039;-61
2022/09/21 04:12:28;;;;;;;21.63;5.10;;;;;;;;;;5030380;28;20030;-61
2022/09/21 04:14:53;;;;;;;9.75;4.20;;;;;;;;;;5034243;28;20057;-61
2022/09/21 04:17:18;;;;;;;13.32;4.53;;;;;;;;;;5031819;28;20034;-62
2022/09/21 04:19:44;;;;;;;12.23;4.35;;;;;;;;;;5010163;28;20034;-61
2022/09/21 04:22:11;;;;;;;43.22;5.20;;;;;;;;;;5008999;28;20037;-61
2022/09/21 04:24:38;;;;;;;8.73;4.30;;;;;;;;;;5027205;28;20087;-61
2022/09/21 04:27:03;;;;;;;17.42;4.22;;;;;;;;;;5030602;28;20036;-61
2022/09/21 04:29:28;;;;;;;8.05;3.80;;;;;;;;;;5047253;28;20037;-61
2022/09/21 04:31:54;;;;;;;7.97;4.07;;;;;;;;;;5049468;28;20040;-61
2022/09/21 04:34:20;;;;;;;9.68;3.63;;;;;;;;;;5049478;28;20037;-61
2022/09/21 04:36:46;;;;;;;16.38;4.65;;;;;;;;;;5049509;28;20036;-61
2022/09/21 04:39:11;;;;;;;16.55;4.85;;;;;;;;;;5050187;28;20105;-61
2022/09/21 04:41:36;;;;;;;57.13;5.70;;;;;;;;;;5023722;28;20263;-62
2022/09/21 04:44:02;;;;;;;145.95;7.82;;;;;;;;;;5042533;28;20037;-61
2022/09/21 04:46:27;;;;;;;115.05;6.90;;;;;;;;;;5056025;28;20112;-61
2022/09/21 04:48:53;;;;;;;91.88;5.90;;;;;;;;;;5069103;28;20467;-61
2022/09/21 04:51:18;;;;;;;81.82;6.43;;;;;;;;;;5067963;28;20024;-61
2022/09/21 04:53:44;;;;;;;13.13;4.95;;;;;;;;;;5068959;28;20086;-61
2022/09/21 04:56:12;;;;;;;20.98;4.60;;;;;;;;;;5065970;28;20041;-61
2022/09/21 04:58:38;;;;;;;31.13;4.65;;;;;;;;;;5058613;28;20044;-61
2022/09/21 05:01:05;;;;;;;21.55;4.93;;;;;;;;;;5069177;28;20052;-62
2022/09/21 05:03:30;;;;;;;48.70;5.65;;;;;;;;;;5068306;28;20024;-61
2022/09/21 05:05:57;;;;;;;53.60;5.20;;;;;;;;;;5069024;28;20028;-61
2022/09/21 05:11:14;;;;;;;99.88;5.50;;;;;;;;;;5068849;28;20044;-61
2022/09/21 05:13:40;;;;;;;17.58;4.03;;;;;;;;;;5068768;28;20123;-61
2022/09/21 05:16:06;;;;;;;44.70;5.30;;;;;;;;;;5068594;28;20039;-61
2022/09/21 05:18:31;;;;;;;41.45;4.57;;;;;;;;;;5068429;28;20097;-61
2022/09/21 05:20:58;;;;;;;29.73;4.45;;;;;;;;;;5068966;28;20028;-61
2022/09/21 05:23:24;;;;;;;50.13;4.68;;;;;;;;;;5068744;28;20040;-61
2022/09/21 05:25:50;;;;;;;32.95;4.28;;;;;;;;;;5056998;28;20035;-61
2022/09/21 05:28:17;;;;;;;11.23;3.70;;;;;;;;;;5039969;28;20033;-61
2022/09/21 05:30:54;;;;;;;8.40;3.72;;;;;;;;;;5028799;28;20018;-61
2022/09/21 05:33:20;;;;;;;13.32;4.43;;;;;;;;;;5028977;28;20014;-61
2022/09/21 05:36:24;;;;;;;6.22;3.85;;;;;;;;;;5028606;28;20033;-61
2022/09/21 05:38:50;;;;;;;7.22;4.22;;;;;;;;;;5027608;28;20061;-61
2022/09/21 05:41:15;;;;;;;6.78;3.60;;;;;;;;;;5035370;28;20057;-61
2022/09/21 05:43:41;;;;;;;17.77;4.40;;;;;;;;;;5046564;28;20033;-61
2022/09/21 05:46:40;;;;;;;30.35;6.00;;;;;;;;;;5048491;28;20506;-61
2022/09/21 05:49:18;;;;;;;16.45;5.18;;;;;;;;;;5047590;28;20127;-61
2022/09/21 05:52:07;;;;;;;12.55;5.47;;;;;;;;;;5048053;28;20123;-61
2022/09/21 05:54:41;;;;;;;36.15;5.35;;;;;;;;;;5047729;28;20398;-61
2022/09/21 05:57:18;;;;;;;23.30;6.03;;;;;;;;;;5038073;28;20052;-61
2022/09/21 06:00:09;;;;;;;12.68;6.13;;;;;;;;;;5046173;28;20032;-61
2022/09/21 06:02:56;;;;;;;12.93;5.82;;;;;;;;;;5037334;28;20510;-61
2022/09/21 06:05:22;;;;;;;14.95;7.28;;;;;;;;;;5027465;28;20057;-61
2022/09/21 06:07:47;;;;;;;14.98;8.25;;;;;;;;;;5027787;28;20053;-61
2022/09/21 06:10:13;;;;;;;33.63;5.80;;;;;;;;;;5026358;28;20030;-61
2022/09/21 06:12:39;;;;;;;12.43;4.72;;;;;;;;;;5024750;28;20487;-61
2022/09/21 06:15:06;;;;;;;27.27;4.03;;;;;;;;;;5027680;28;20501;-61
2022/09/21 06:17:32;;;;;;;12.50;3.90;;;;;;;;;;5046494;28;20044;-61
2022/09/21 06:19:57;;;;;;;16.45;4.40;;;;;;;;;;5047755;28;20033;-61
2022/09/21 06:22:23;;;;;;;10.85;4.70;;;;;;;;;;5047592;28;20040;-61
2022/09/21 06:24:48;;;;;;;19.55;3.92;;;;;;;;;;5040820;28;20046;-61
2022/09/21 06:27:13;;;;;;;10.25;4.00;;;;;;;;;;5027868;28;20485;-61
2022/09/21 06:29:39;;;;;;;7.88;4.30;;;;;;;;;;5030782;28;20094;-61
2022/09/21 06:32:04;;;;;;;11.30;4.85;;;;;;;;;;5032054;28;20124;-61
2022/09/21 06:34:30;;;;;;;21.67;5.85;;;;;;;;;;5025805;28;20036;-61
2022/09/21 06:36:56;;;;;;;15.38;6.72;;;;;;;;;;5026589;28;20038;-61
2022/09/21 06:39:21;;;;;;;15.88;6.70;;;;;;;;;;5026343;28;20021;-61
2022/09/21 06:41:46;;;;;;;14.05;7.13;;;;;;;;;;5025540;28;20053;-61
2022/09/21 06:44:11;;;;;;;12.68;6.43;;;;;;;;;;5028164;28;20071;-61
2022/09/21 06:46:38;;;;;;;14.18;6.30;;;;;;;;;;5030967;28;20065;-62
2022/09/21 06:49:04;;;;;;;14.45;6.65;;;;;;;;;;5023417;28;20139;-61
2022/09/21 06:51:29;;;;;;;14.40;6.32;;;;;;;;;;5027428;28;20033;-61
2022/09/21 06:53:57;;;;;;;18.63;7.75;;;;;;;;;;5042309;28;20606;-62
2022/09/21 06:56:24;;;;;;;15.20;6.07;;;;;;;;;;5025167;28;20454;-61
2022/09/21 06:58:51;;;;;;;12.65;5.60;;;;;;;;;;5015629;28;20542;-61
2022/09/21 07:01:17;;;;;;;9.93;5.15;;;;;;;;;;5025189;28;20040;-61
2022/09/21 07:03:42;;;;;;;11.48;5.43;;;;;;;;;;5021565;28;20053;-61
2022/09/21 07:06:14;;;;;;;10.85;6.15;;;;;;;;;;5019481;28;20017;-61
2022/09/21 07:08:40;;;;;;;10.18;5.22;;;;;;;;;;5024316;28;20037;-61
2022/09/21 07:11:05;;;;;;;11.00;5.65;;;;;;;;;;5025345;28;20045;-61
2022/09/21 07:13:31;;;;;;;14.45;6.55;;;;;;;;;;5025059;28;20092;-62
2022/09/21 07:15:56;;;;;;;12.25;6.88;;;;;;;;;;5025290;28;20136;-61
2022/09/21 07:18:22;;;;;;;13.98;6.75;;;;;;;;;;5026295;28;20029;-61
2022/09/21 07:20:48;;;;;;;14.70;7.55;;;;;;;;;;5025757;28;20029;-61
2022/09/21 07:23:18;;;;;;;12.60;6.60;;;;;;;;;;5026195;28;20038;-61
2022/09/21 07:25:45;;;;;;;12.48;6.88;;;;;;;;;;5025210;28;20041;-61
2022/09/21 07:28:11;;;;;;;14.65;7.18;;;;;;;;;;5026235;28;20099;-61
2022/09/21 07:30:38;;;;;;;16.55;8.25;;;;;;;;;;5023753;28;20609;-61
2022/09/21 07:33:05;;;;;;;21.15;8.70;;;;;;;;;;5026643;28;20034;-61
2022/09/21 07:35:31;;;;;;;28.60;11.15;;;;;;;;;;5025586;28;20064;-61
2022/09/21 07:37:58;;;;;;;21.33;10.05;;;;;;;;;;5025735;28;20559;-61
2022/09/21 07:40:23;;;;;;;21.98;9.57;;;;;;;;;;5023549;28;20751;-61
2022/09/21 07:42:49;;;;;;;21.50;10.15;;;;;;;;;;5024412;28;20511;-61
2022/09/21 07:45:14;;;;;;;23.85;10.40;;;;;;;;;;5025044;28;20495;-61
2022/09/21 07:47:39;;;;;;;27.85;11.02;;;;;;;;;;5023395;28;20052;-61
2022/09/21 07:50:05;;;;;;;22.38;10.68;;;;;;;;;;5023576;28;20030;-61
2022/09/21 07:52:30;;;;;;;58.00;19.60;;;;;;;;;;5023050;28;20056;-61
2022/09/21 07:54:56;;;;;;;48.72;18.13;;;;;;;;;;5025674;28;20025;-61
2022/09/21 08:00:06;;;;;;;30.88;12.50;;;;;;;;;;5026664;28;20095;-61
2022/09/21 08:02:31;;;;;;;30.45;12.48;;;;;;;;;;5033212;28;20025;-61
2022/09/21 08:04:56;;;;;;;25.10;11.45;;;;;;;;;;5032402;28;20399;-61
2022/09/21 08:07:22;;;;;;;27.00;11.57;;;;;;;;;;5025072;28;20104;-61
2022/09/21 08:09:49;;;;;;;28.60;12.05;;;;;;;;;;5032191;28;20033;-61
2022/09/21 08:12:17;;;;;;;29.75;12.77;;;;;;;;;;5027852;28;20537;-61
2022/09/21 08:14:43;;;;;;;26.52;12.50;;;;;;;;;;5027153;28;20076;-61
2022/09/21 08:17:08;;;;;;;28.35;13.80;;;;;;;;;;5026931;28;20057;-61
2022/09/21 08:19:35;;;;;;;28.65;12.95;;;;;;;;;;5025826;28;20087;-62
2022/09/21 08:22:00;;;;;;;30.88;14.13;;;;;;;;;;5024989;28;20510;-61
2022/09/21 08:24:26;;;;;;;28.40;13.50;;;;;;;;;;5028706;28;20029;-61
2022/09/21 08:26:51;;;;;;;23.95;13.68;;;;;;;;;;5031085;28;20554;-61
2022/09/21 08:29:17;;;;;;;30.67;14.25;;;;;;;;;;5029479;28;20045;-61
2022/09/21 08:31:43;;;;;;;29.40;14.07;;;;;;;;;;5030300;28;20048;-61
2022/09/21 08:34:08;;;;;;;28.40;15.10;;;;;;;;;;5030449;28;20030;-61
2022/09/21 08:36:34;;;;;;;29.65;14.45;;;;;;;;;;5025737;28;20618;-61
2022/09/21 08:38:59;;;;;;;27.88;13.48;;;;;;;;;;5022295;28;20036;-61
2022/09/21 08:42:01;;;;;;;33.13;13.98;;;;;;;;;;5028398;28;20045;-61
2022/09/21 08:44:55;;;;;;;33.38;15.35;;;;;;;;;;5027826;28;20116;-61
2022/09/21 08:47:34;;;;;;;27.95;13.60;;;;;;;;;;5028504;28;20033;-61
2022/09/21 08:50:03;;;;;;;29.83;13.35;;;;;;;;;;5028142;28;20037;-61
2022/09/21 08:52:31;;;;;;;30.20;12.95;;;;;;;;;;5028642;28;20048;-61
2022/09/21 08:55:00;;;;;;;34.92;14.05;;;;;;;;;;5028439;28;20037;-61
2022/09/21 08:57:29;;;;;;;30.73;13.15;;;;;;;;;;5023767;28;20104;-61
2022/09/21 08:59:55;;;;;;;25.40;11.20;;;;;;;;;;5018753;28;20116;-61
2022/09/21 09:02:43;;;;;;;20.33;9.13;;;;;;;;;;5017280;28;20133;-61
2022/09/21 09:05:37;;;;;;;24.77;9.02;;;;;;;;;;5023273;28;20064;-61
2022/09/21 09:08:31;;;;;;;23.60;9.20;;;;;;;;;;5015118;28;20037;-61
2022/09/21 09:11:23;;;;;;;20.77;9.43;;;;;;;;;;5006328;28;20132;-61
2022/09/21 09:14:22;;;;;;;17.02;7.75;;;;;;;;;;5013089;28;20095;-61
2022/09/21 09:17:06;;;;;;;18.33;7.75;;;;;;;;;;5027399;28;20033;-61
2022/09/21 09:20:13;;;;;;;26.35;10.27;;;;;;;;;;5028010;28;20121;-62
2022/09/21 09:22:43;;;;;;;20.83;10.55;;;;;;;;;;5027433;28;20207;-61
2022/09/21 09:25:20;;;;;;;19.10;8.13;;;;;;;;;;5031146;28;20810;-61
2022/09/21 09:27:51;;;;;;;23.23;10.75;;;;;;;;;;5014522;28;20030;-61
2022/09/21 09:30:22;;;;;;;26.48;10.63;;;;;;;;;;5006961;28;20026;-61
2022/09/21 09:32:56;;;;;;;20.98;9.57;;;;;;;;;;5007076;28;20038;-61
2022/09/21 09:35:29;;;;;;;21.35;9.35;;;;;;;;;;5007023;28;20044;-61
2022/09/21 09:37:59;;;;;;;21.63;10.07;;;;;;;;;;5007780;28;20065;-61
2022/09/21 09:40:43;;;;;;;17.02;8.93;;;;;;;;;;5006577;28;20050;-62
2022/09/21 09:43:23;;;;;;;24.50;9.45;;;;;;;;;;5007751;28;20034;-61
2022/09/21 09:46:26;;;;;;;16.95;7.55;;;;;;;;;;5009400;28;20549;-61
2022/09/21 09:49:12;;;;;;;15.40;7.18;;;;;;;;;;5020029;28;20033;-61
2022/09/21 09:51:39;;;;;;;18.15;7.72;;;;;;;;;;5026114;28;20025;-61
2022/09/21 09:54:13;;;;;;;17.80;8.18;;;;;;;;;;5013668;28;20021;-61
2022/09/21 09:56:38;;;;;;;19.55;8.68;;;;;;;;;;5027286;28;20026;-62
2022/09/21 09:59:11;;;;;;;16.40;8.05;;;;;;;;;;5026792;28;20040;-61
2022/09/21 10:01:41;;;;;;;19.02;7.85;;;;;;;;;;5026976;28;20036;-61
2022/09/21 10:04:09;;;;;;;14.48;8.02;;;;;;;;;;5025865;28;20064;-61
2022/09/21 10:06:34;;;;;;;20.63;9.48;;;;;;;;;;5027282;28;20028;-62
2022/09/21 10:08:59;;;;;;;17.08;9.13;;;;;;;;;;5026997;28;20018;-61
2022/09/21 10:11:36;;;;;;;16.10;8.32;;;;;;;;;;5018870;28;20423;-61
2022/09/21 10:14:12;;;;;;;15.23;7.55;;;;;;;;;;5027215;28;20095;-61
2022/09/21 10:16:40;;;;;;;14.35;8.02;;;;;;;;;;5027247;28;20523;-61
2022/09/21 10:19:14;;;;;;;14.40;7.68;;;;;;;;;;5024340;28;20057;-61
2022/09/21 10:21:45;;;;;;;16.10;9.00;;;;;;;;;;5027213;28;20025;-61
2022/09/21 10:24:25;;;;;;;21.60;9.43;;;;;;;;;;5027226;28;20021;-61
2022/09/21 10:26:54;;;;;;;14.50;7.15;;;;;;;;;;5026662;28;20034;-62
2022/09/21 10:29:20;;;;;;;14.50;7.93;;;;;;;;;;5026696;28;20144;-62
2022/09/21 10:31:58;;;;;;;13.35;6.75;;;;;;;;;;5026379;28;20113;-61
2022/09/21 10:34:26;;;;;;;17.25;6.70;;;;;;;;;;5026626;28;20045;-62
2022/09/21 10:36:54;;;;;;;17.38;6.20;;;;;;;;;;5015466;28;20030;-62
2022/09/21 10:39:24;;;;;;;21.20;6.28;;;;;;;;;;5012672;28;20033;-61
2022/09/21 10:41:58;;;;;;;9.68;5.35;;;;;;;;;;5024538;28;20067;-61
2022/09/21 10:44:28;;;;;;;8.93;4.82;;;;;;;;;;5026304;28;20522;-61
2022/09/21 10:46:54;;;;;;;6.72;2.42;;;;;;;;;;5025606;28;20063;-61
2022/09/21 10:49:28;;;;;;;5.72;3.22;;;;;;;;;;5026620;28;20694;-61
2022/09/21 10:51:57;;;;;;;8.52;3.72;;;;;;;;;;5025663;28;20103;-61
2022/09/21 10:54:26;;;;;;;5.90;2.90;;;;;;;;;;5026641;28;20029;-61
2022/09/21 10:56:55;;;;;;;7.82;3.25;;;;;;;;;;5020134;28;20045;-61
2022/09/21 10:59:27;;;;;;;6.10;2.88;;;;;;;;;;5032290;28;20064;-62
2022/09/21 11:01:56;;;;;;;5.50;2.53;;;;;;;;;;5045521;28;20037;-61
2022/09/21 11:04:44;;;;;;;7.45;2.50;;;;;;;;;;5034855;28;20064;-61
2022/09/21 11:07:23;;;;;;;3.65;2.03;;;;;;;;;;5012295;28;20034;-61
2022/09/21 11:09:57;;;;;;;6.05;3.15;;;;;;;;;;5027724;28;20037;-61
2022/09/21 11:12:28;;;;;;;;;;;;;;;;;;5045751;28;20029;-62
2022/09/21 11:15:02;;;;;;;5.90;3.17;;;;;;;;;;5065679;28;19941;-61
2022/09/21 11:17:36;;;;;;;4.43;2.85;;;;;;;;;;5065418;28;20522;-61
2022/09/21 11:20:29;;;;;;;4.63;2.97;;;;;;;;;;5066005;28;20041;-61
2022/09/21 11:23:17;;;;;;;7.20;2.47;;;;;;;;;;5063766;28;20040;-61
2022/09/21 11:26:01;;;;;;;6.47;2.88;;;;;;;;;;5049868;28;20036;-61
2022/09/21 11:28:42;;;;;;;6.15;2.65;;;;;;;;;;5043868;28;20422;-62
2022/09/21 11:31:28;;;;;;;6.28;2.90;;;;;;;;;;5041117;28;20032;-61
2022/09/21 11:34:19;;;;;;;6.78;3.30;;;;;;;;;;5034353;28;20156;-62
2022/09/21 11:37:08;;;;;;;7.07;2.47;;;;;;;;;;5028183;28;20113;-61
2022/09/21 11:39:55;;;;;;;7.05;2.70;;;;;;;;;;5044908;28;20013;-62
2022/09/21 11:43:00;;;;;;;4.88;2.80;;;;;;;;;;5022760;28;20462;-61
2022/09/21 11:45:48;;;;;;;5.95;2.95;;;;;;;;;;5022734;28;20117;-61
2022/09/21 11:48:20;;;;;;;4.07;2.38;;;;;;;;;;5025599;28;20025;-61
2022/09/21 11:51:12;;;;;;;4.05;2.50;;;;;;;;;;5025267;28;20083;-62
2022/09/21 11:54:26;;;;;;;4.90;2.50;;;;;;;;;;5024267;28;20033;-61
2022/09/21 11:57:10;;;;;;;3.83;1.90;;;;;;;;;;5039523;28;20517;-60
2022/09/21 11:59:59;;;;;;;5.60;2.90;;;;;;;;;;5028225;28;20056;-61
2022/09/21 12:02:50;;;;;;;5.25;2.67;;;;;;;;;;5029105;28;20029;-61
2022/09/21 12:05:21;;;;;;;3.28;2.10;;;;;;;;;;5029767;28;20121;-61
2022/09/21 12:08:08;;;;;;;6.10;1.80;;;;;;;;;;5028990;28;20038;-61
2022/09/21 12:10:45;;;;;;;7.13;2.50;;;;;;;;;;5026914;28;20119;-61
2022/09/21 12:13:20;;;;;;;8.40;3.20;;;;;;;;;;5032258;28;20044;-61
2022/09/21 12:15:58;;;;;;;3.85;2.55;;;;;;;;;;5047356;28;20032;-61
2022/09/21 12:18:24;;;;;;;4.45;2.78;;;;;;;;;;5047504;28;20028;-61
2022/09/21 12:20:53;;;;;;;5.80;2.85;;;;;;;;;;5049109;28;20031;-61
2022/09/21 12:23:37;;;;;;;5.70;2.45;;;;;;;;;;5048675;28;20425;-61
2022/09/21 12:26:04;;;;;;;5.40;2.65;;;;;;;;;;5035787;28;20025;-61
2022/09/21 12:28:36;;;;;;;4.30;2.47;;;;;;;;;;5027848;28;20418;-62
2022/09/21 12:31:27;;;;;;;5.45;3.08;;;;;;;;;;5027703;28;20052;-63
2022/09/21 12:34:02;;;;;;;5.88;3.10;;;;;;;;;;5028601;28;20134;-62
2022/09/21 12:36:36;;;;;;;5.72;2.67;;;;;;;;;;5028420;28;20422;-62
2022/09/21 12:39:19;;;;;;;3.33;2.10;;;;;;;;;;5026899;28;20414;-62
2022/09/21 12:42:35;;;;;;;4.70;2.13;;;;;;;;;;5037020;28;20045;-62
2022/09/21 12:45:10;;;;;;;3.83;2.00;;;;;;;;;;5061398;28;20072;-62
2022/09/21 12:48:03;;;;;;;5.65;2.20;;;;;;;;;;5065294;28;20052;-62
2022/09/21 12:50:36;;;;;;;2.40;1.95;;;;;;;;;;5051619;28;20097;-62
2022/09/21 12:53:02;;;;;;;5.35;2.20;;;;;;;;;;5048202;28;20464;-61
2022/09/21 12:55:44;;;;;;;5.22;2.10;;;;;;;;;;5048205;28;20040;-62
2022/09/21 12:58:36;;;;;;;4.65;1.98;;;;;;;;;;5047514;28;20033;-62
2022/09/21 13:01:13;;;;;;;8.57;3.22;;;;;;;;;;5028426;28;20042;-61
2022/09/21 13:03:54;;;;;;;6.07;2.30;;;;;;;;;;5028343;28;20026;-62
2022/09/21 13:06:57;;;;;;;5.22;2.72;;;;;;;;;;5028943;28;20128;-62
2022/09/21 13:09:24;;;;;;;12.65;3.10;;;;;;;;;;5007731;28;20091;-62
2022/09/21 13:11:55;;;;;;;3.03;2.15;;;;;;;;;;5009150;28;20033;-62
2022/09/21 13:14:25;;;;;;;4.88;2.42;;;;;;;;;;5007748;28;20096;-62
2022/09/21 13:16:56;;;;;;;4.85;2.50;;;;;;;;;;5008084;28;20042;-64
2022/09/21 13:19:24;;;;;;;7.28;2.53;;;;;;;;;;5026344;28;20041;-62
2022/09/21 13:22:14;;;;;;;7.88;2.65;;;;;;;;;;5007303;28;20114;-62
2022/09/21 13:24:41;;;;;;;4.05;2.15;;;;;;;;;;5010183;28;20026;-63
2022/09/21 13:27:07;;;;;;;10.20;2.80;;;;;;;;;;5047464;28;20597;-63
2022/09/21 13:29:35;;;;;;;5.03;2.20;;;;;;;;;;5046888;28;20029;-63
2022/09/21 13:32:22;;;;;;;4.75;2.55;;;;;;;;;;5047577;28;20037;-63
2022/09/21 13:34:49;;;;;;;7.80;2.53;;;;;;;;;;5023954;28;20435;-63
2022/09/21 13:37:18;;;;;;;4.55;2.05;;;;;;;;;;5028149;28;20041;-63
2022/09/21 13:39:43;;;;;;;7.53;2.20;;;;;;;;;;5026999;28;20026;-62
2022/09/21 13:42:27;;;;;;;5.00;2.50;;;;;;;;;;5026918;28;20053;-63
2022/09/21 13:44:53;;;;;;;7.18;2.85;;;;;;;;;;5044383;28;20057;-63
2022/09/21 13:47:29;;;;;;;4.00;2.30;;;;;;;;;;5032262;28;20033;-63
2022/09/21 13:49:55;;;;;;;4.55;2.03;;;;;;;;;;5011424;28;21057;-63
2022/09/21 13:52:39;;;;;;;3.53;1.77;;;;;;;;;;5006384;28;20170;-63
2022/09/21 13:55:05;;;;;;;;;;;;;;;;;;5008517;28;20607;-63
2022/09/21 13:57:50;;;;;;;4.50;1.63;;;;;;;;;;5021594;28;19908;-63
2022/09/21 14:00:18;;;;;;;5.22;1.55;;;;;;;;;;5013359;28;20013;-63
2022/09/21 14:02:49;;;;;;;3.72;1.70;;;;;;;;;;5041837;28;20037;-63
2022/09/21 14:05:30;;;;;;;4.70;1.60;;;;;;;;;;5031978;28;20038;-63
2022/09/21 14:08:06;;;;;;;6.68;1.73;;;;;;;;;;5040153;28;20227;-63
2022/09/21 14:10:36;;;;;;;6.32;1.75;;;;;;;;;;5038079;28;20449;-63
2022/09/21 14:13:06;;;;;;;3.95;1.40;;;;;;;;;;5017583;28;20458;-62
2022/09/21 14:15:38;;;;;;;3.35;1.58;;;;;;;;;;5027406;28;20075;-63
2022/09/21 14:18:15;;;;;;;3.40;1.70;;;;;;;;;;5027349;28;20095;-63
2022/09/21 14:21:06;;;;;;;4.70;1.77;;;;;;;;;;5024168;28;20117;-63
2022/09/21 14:23:33;;;;;;;4.72;1.52;;;;;;;;;;5026247;28;20037;-63
2022/09/21 14:26:00;;;;;;;4.32;1.55;;;;;;;;;;5018188;28;20033;-63
2022/09/21 14:28:41;;;;;;;3.75;1.80;;;;;;;;;;5027198;28;20069;-63
2022/09/21 14:31:28;;;;;;;5.10;1.63;;;;;;;;;;5018843;28;20713;-63
2022/09/21 14:33:56;;;;;;;3.50;1.60;;;;;;;;;;5013990;28;20044;-63
2022/09/21 14:36:33;;;;;;;5.63;1.77;;;;;;;;;;5027450;28;20851;-62
2022/09/21 14:39:01;;;;;;;4.45;1.80;;;;;;;;;;5045103;28;20111;-63
2022/09/21 14:41:35;;;;;;;4.38;2.00;;;;;;;;;;5028792;28;20073;-63
2022/09/21 14:44:01;;;;;;;4.43;1.40;;;;;;;;;;5004962;28;20450;-63
2022/09/21 14:46:44;;;;;;;7.20;2.10;;;;;;;;;;5005545;28;20034;-63
2022/09/21 14:49:29;;;;;;;4.07;1.45;;;;;;;;;;5006065;28;20415;-63
2022/09/21 14:52:27;;;;;;;6.05;1.50;;;;;;;;;;5006147;28;20034;-62
2022/09/21 14:55:30;;;;;;;5.38;1.50;;;;;;;;;;5006058;28;20038;-63
2022/09/21 14:58:20;;;;;;;3.75;1.60;;;;;;;;;;5023536;28;20755;-63
2022/09/21 15:00:48;;;;;;;3.60;1.63;;;;;;;;;;5024264;28;20113;-62
2022/09/21 15:03:30;;;;;;;6.03;1.30;;;;;;;;;;5025794;28;20036;-63
2022/09/21 15:12:00;;;;;;;5.93;2.00;;;;;;;;;;5046333;28;20128;-63
2022/09/21 15:14:35;;;;;;;3.70;1.40;;;;;;;;;;5027948;28;20128;-63
2022/09/21 15:17:21;;;;;;;3.88;1.20;;;;;;;;;;5040282;28;20130;-63
2022/09/21 15:19:48;;;;;;;3.53;1.75;;;;;;;;;;5045762;28;20075;-63